Time;durP1;ratioP1;P1;durP2;ratioP2;P2;SDS_P1;SDS_P2;PMS_P1;PMS_P2;Temp;Humidity;BMP_temperature;BMP_pressure;BME280_temperature;BME280_humidity;BME280_pressure;Samples;Min_cycle;Max_cycle;Signal;HPM_P1;HPM_P2
2022/03/01 00:02:18;;;;;;;26.35;14.98;;;3.90;99.90;;;;;;5019706;28;20056;-70
2022/03/01 00:04:44;;;;;;;25.45;15.07;;;3.90;99.90;;;;;;5019365;28;20303;-70
2022/03/01 00:07:10;;;;;;;24.40;14.75;;;3.90;99.90;;;;;;5019316;28;20325;-71
2022/03/01 00:09:37;;;;;;;24.92;15.52;;;3.90;99.90;;;;;;5020597;28;20026;-69
2022/03/01 00:12:03;;;;;;;24.98;15.95;;;3.90;99.90;;;;;;5019590;28;20072;-69
2022/03/01 00:14:29;;;;;;;24.90;15.10;;;3.90;99.90;;;;;;5019744;28;20301;-69
2022/03/01 00:16:55;;;;;;;22.25;15.40;;;4.00;99.90;;;;;;5018813;28;20145;-69
2022/03/01 00:19:21;;;;;;;23.05;15.00;;;4.00;99.90;;;;;;5019098;28;20041;-69
2022/03/01 00:21:47;;;;;;;24.45;15.00;;;4.00;99.90;;;;;;5019219;28;20309;-69
2022/03/01 00:24:13;;;;;;;26.48;15.63;;;4.10;99.90;;;;;;5018673;28;20103;-69
2022/03/01 00:26:39;;;;;;;25.17;15.10;;;4.00;99.90;;;;;;5019840;28;20070;-70
2022/03/01 00:29:05;;;;;;;24.05;15.30;;;4.10;99.90;;;;;;5019595;28;20030;-69
2022/03/01 00:31:31;;;;;;;23.63;14.45;;;4.20;99.90;;;;;;5018820;28;20052;-69
2022/03/01 00:33:57;;;;;;;24.23;14.98;;;4.20;99.90;;;;;;5019227;28;20313;-70
2022/03/01 00:36:22;;;;;;;22.30;15.05;;;4.10;99.90;;;;;;5019550;28;20120;-69
2022/03/01 00:38:48;;;;;;;22.38;15.15;;;4.20;99.90;;;;;;5018422;28;20064;-69
2022/03/01 00:41:14;;;;;;;23.85;14.70;;;4.10;99.90;;;;;;5002066;28;20066;-69
2022/03/01 00:43:40;;;;;;;23.70;14.95;;;4.20;99.90;;;;;;5018943;28;20049;-70
2022/03/01 00:46:06;;;;;;;24.85;14.00;;;4.20;99.90;;;;;;5019469;28;20426;-70
2022/03/01 00:48:32;;;;;;;22.42;13.80;;;4.20;99.90;;;;;;5018519;28;20100;-71
2022/03/01 00:50:58;;;;;;;23.70;13.85;;;4.30;99.90;;;;;;5019770;28;20022;-70
2022/03/01 00:53:24;;;;;;;23.33;14.52;;;4.30;99.90;;;;;;5019143;28;20099;-70
2022/03/01 00:55:49;;;;;;;22.15;13.90;;;4.30;99.90;;;;;;5018558;28;20283;-70
2022/03/01 00:58:15;;;;;;;20.15;13.05;;;4.40;99.90;;;;;;5018933;28;20042;-70
2022/03/01 01:00:41;;;;;;;19.05;12.45;;;4.40;99.90;;;;;;5018327;28;20033;-70
2022/03/01 01:03:07;;;;;;;19.33;12.23;;;4.50;99.90;;;;;;5001964;28;20109;-70
2022/03/01 01:05:33;;;;;;;18.50;12.05;;;4.60;99.90;;;;;;5018065;28;20029;-70
2022/03/01 01:07:59;;;;;;;19.15;12.73;;;4.70;99.90;;;;;;5018956;28;20034;-70
2022/03/01 01:10:25;;;;;;;21.42;13.18;;;4.70;99.90;;;;;;5001477;28;20026;-70
2022/03/01 01:12:51;;;;;;;20.48;12.18;;;4.70;99.90;;;;;;5017805;28;20065;-70
2022/03/01 01:15:18;;;;;;;20.33;12.63;;;4.70;99.90;;;;;;5018789;28;20033;-69
2022/03/01 01:17:44;;;;;;;18.98;12.25;;;4.70;99.90;;;;;;5018576;28;20302;-70
2022/03/01 01:20:10;;;;;;;19.38;11.98;;;4.80;99.90;;;;;;5018332;28;20026;-70
2022/03/01 01:22:42;;;;;;;18.88;12.40;;;4.70;99.90;;;;;;5018242;28;20032;-70
2022/03/01 01:25:09;;;;;;;19.50;13.02;;;4.80;99.90;;;;;;4986012;28;20340;-71
2022/03/01 01:27:36;;;;;;;17.35;11.90;;;4.80;99.90;;;;;;5017982;28;20414;-70
2022/03/01 01:30:04;;;;;;;19.88;12.85;;;4.70;99.90;;;;;;5018288;28;20030;-70
2022/03/01 01:32:29;;;;;;;19.83;12.68;;;4.60;99.90;;;;;;5000401;28;20030;-70
2022/03/01 01:34:55;;;;;;;18.25;11.88;;;4.70;99.90;;;;;;5018223;28;20121;-70
2022/03/01 01:37:21;;;;;;;18.85;11.85;;;4.60;99.90;;;;;;5018247;28;20026;-70
2022/03/01 01:39:47;;;;;;;21.88;12.65;;;4.70;99.90;;;;;;5017413;28;20461;-70
2022/03/01 01:42:13;;;;;;;19.73;12.85;;;4.70;99.90;;;;;;5017299;28;20030;-70
2022/03/01 01:44:39;;;;;;;18.77;12.50;;;4.60;99.90;;;;;;5017966;28;20121;-70
2022/03/01 01:47:07;;;;;;;20.55;12.88;;;4.40;99.90;;;;;;5017303;28;20069;-70
2022/03/01 01:49:33;;;;;;;20.23;12.38;;;4.40;99.90;;;;;;5017133;28;20041;-72
2022/03/01 01:51:59;;;;;;;19.95;12.60;;;4.50;99.90;;;;;;5017747;28;20455;-70
2022/03/01 01:54:25;;;;;;;18.80;12.95;;;4.50;99.90;;;;;;5017756;28;20121;-70
2022/03/01 01:56:51;;;;;;;20.67;12.05;;;4.40;99.90;;;;;;5000777;28;20121;-70
2022/03/01 01:59:17;;;;;;;24.70;13.48;;;4.40;99.90;;;;;;5017617;28;20306;-70
2022/03/01 02:01:44;;;;;;;18.42;12.18;;;4.40;99.90;;;;;;5016909;28;20056;-70
2022/03/01 02:04:10;;;;;;;20.02;12.38;;;4.40;99.90;;;;;;5016790;28;20103;-70
2022/03/01 02:06:56;;;;;;;18.77;12.15;;;4.40;99.90;;;;;;5017990;28;20076;-70
2022/03/01 02:09:22;;;;;;;18.73;11.98;;;4.30;99.90;;;;;;5049950;28;20041;-70
2022/03/01 02:11:48;;;;;;;19.55;12.93;;;4.30;99.90;;;;;;5017506;28;20026;-70
2022/03/01 02:14:14;;;;;;;20.27;12.85;;;4.30;99.90;;;;;;5017421;28;20470;-70
2022/03/01 02:16:41;;;;;;;19.35;13.07;;;4.30;99.90;;;;;;5016840;28;20100;-70
2022/03/01 02:19:11;;;;;;;22.13;13.13;;;4.40;99.90;;;;;;5000394;28;20059;-70
2022/03/01 02:21:44;;;;;;;22.05;12.40;;;4.40;99.90;;;;;;5017895;28;20096;-70
2022/03/01 02:24:10;;;;;;;19.25;12.60;;;4.50;99.90;;;;;;5016895;28;20421;-70
2022/03/01 02:26:35;;;;;;;18.25;12.15;;;4.50;99.90;;;;;;5017405;28;20057;-70
2022/03/01 02:29:01;;;;;;;18.52;12.25;;;4.50;99.90;;;;;;5017238;28;20343;-70
2022/03/01 02:31:27;;;;;;;20.17;12.32;;;4.50;99.90;;;;;;5000720;28;20034;-70
2022/03/01 02:33:53;;;;;;;19.58;11.90;;;4.60;99.90;;;;;;5016616;28;20033;-70
2022/03/01 02:36:18;;;;;;;19.15;11.88;;;4.60;99.90;;;;;;5016868;28;20038;-70
2022/03/01 02:38:44;;;;;;;18.90;11.98;;;4.70;99.90;;;;;;5017427;28;20077;-70
2022/03/01 02:41:10;;;;;;;18.75;11.80;;;4.80;99.90;;;;;;5017816;28;20103;-70
2022/03/01 02:43:36;;;;;;;17.83;11.77;;;4.80;99.90;;;;;;5016903;28;20309;-70
2022/03/01 02:46:02;;;;;;;18.85;12.80;;;4.80;99.90;;;;;;5000150;28;20306;-70
2022/03/01 02:48:27;;;;;;;18.98;12.48;;;4.80;99.90;;;;;;5016304;28;20038;-70
2022/03/01 02:50:53;;;;;;;19.85;12.38;;;4.70;99.90;;;;;;5016247;28;20468;-70
2022/03/01 02:53:19;;;;;;;18.27;11.82;;;4.60;99.90;;;;;;5000124;28;20054;-70
2022/03/01 02:55:45;;;;;;;19.30;11.88;;;4.70;99.90;;;;;;5017315;28;20034;-70
2022/03/01 02:58:11;;;;;;;17.73;11.25;;;4.60;99.90;;;;;;4999914;28;20042;-69
2022/03/01 03:00:38;;;;;;;19.90;11.95;;;4.60;99.90;;;;;;5017465;28;20113;-70
2022/03/01 03:03:04;;;;;;;19.40;12.27;;;4.60;99.90;;;;;;5016069;28;20064;-70
2022/03/01 03:05:30;;;;;;;18.88;11.68;;;4.60;99.90;;;;;;5017180;28;20033;-70
2022/03/01 03:07:55;;;;;;;16.17;11.48;;;4.60;99.90;;;;;;5016009;28;20091;-70
2022/03/01 03:10:21;;;;;;;19.15;12.05;;;4.60;99.90;;;;;;5017489;28;20037;-69
2022/03/01 03:12:47;;;;;;;17.92;11.88;;;4.60;99.90;;;;;;5016994;28;20033;-69
2022/03/01 03:15:13;;;;;;;19.70;11.43;;;4.50;99.90;;;;;;5000350;28;20041;-70
2022/03/01 03:17:39;;;;;;;19.02;11.30;;;4.50;99.90;;;;;;5016185;28;20401;-70
2022/03/01 03:20:05;;;;;;;17.80;11.35;;;4.50;99.90;;;;;;5017444;28;20046;-70
2022/03/01 03:22:31;;;;;;;19.67;12.00;;;4.50;99.90;;;;;;4999758;28;20040;-70
2022/03/01 03:24:57;;;;;;;17.98;11.32;;;4.50;99.90;;;;;;5016273;28;20022;-70
2022/03/01 03:27:23;;;;;;;18.75;11.15;;;4.60;99.90;;;;;;5016746;28;20113;-70
2022/03/01 03:29:49;;;;;;;18.52;11.27;;;4.70;99.90;;;;;;5015995;28;20030;-70
2022/03/01 03:32:14;;;;;;;18.08;11.70;;;4.70;99.90;;;;;;5016388;28;20029;-70
2022/03/01 03:34:40;;;;;;;18.45;12.25;;;4.80;99.90;;;;;;5016050;28;20050;-70
2022/03/01 03:37:06;;;;;;;17.10;11.23;;;4.80;99.90;;;;;;5017025;28;20301;-70
2022/03/01 03:39:32;;;;;;;17.48;11.45;;;4.90;99.90;;;;;;4999851;28;20065;-70
2022/03/01 03:41:58;;;;;;;17.20;11.23;;;4.90;99.90;;;;;;5017305;28;20109;-70
2022/03/01 03:44:24;;;;;;;14.38;10.27;;;5.00;99.90;;;;;;5016919;28;20026;-69
2022/03/01 03:46:49;;;;;;;17.75;11.57;;;5.00;99.90;;;;;;5016529;28;20166;-70
2022/03/01 03:49:15;;;;;;;17.48;11.05;;;5.00;99.90;;;;;;5016459;28;20126;-71
2022/03/01 03:51:41;;;;;;;20.05;11.57;;;5.00;99.90;;;;;;5015656;28;20018;-70
2022/03/01 03:54:08;;;;;;;17.40;11.55;;;4.90;99.90;;;;;;5016578;28;20033;-70
2022/03/01 03:56:34;;;;;;;16.95;11.05;;;4.90;99.90;;;;;;5018715;28;20034;-70
2022/03/01 03:58:59;;;;;;;17.95;11.38;;;5.00;99.90;;;;;;5019946;28;20045;-70
2022/03/01 04:01:25;;;;;;;18.58;11.80;;;4.90;99.90;;;;;;5002735;28;20045;-70
2022/03/01 04:03:51;;;;;;;17.92;11.52;;;5.00;99.90;;;;;;5019008;28;20030;-69
2022/03/01 04:06:17;;;;;;;18.27;10.77;;;5.00;99.90;;;;;;5002719;28;20026;-70
2022/03/01 04:08:43;;;;;;;18.98;11.05;;;5.10;99.90;;;;;;5018901;28;20037;-70
2022/03/01 04:11:09;;;;;;;16.60;10.90;;;5.10;99.90;;;;;;5019732;28;20379;-70
2022/03/01 04:13:35;;;;;;;17.05;11.20;;;5.10;99.90;;;;;;5018911;28;20052;-70
2022/03/01 04:16:02;;;;;;;17.77;10.95;;;5.10;99.90;;;;;;5019517;28;20345;-70
2022/03/01 04:18:27;;;;;;;16.17;10.77;;;5.10;99.90;;;;;;5018762;28;20034;-69
2022/03/01 04:20:53;;;;;;;16.27;10.30;;;5.00;99.90;;;;;;5002453;28;20100;-70
2022/03/01 04:23:19;;;;;;;18.95;9.57;;;5.10;99.90;;;;;;5018890;28;20113;-70
2022/03/01 04:25:45;;;;;;;13.70;9.57;;;5.20;99.90;;;;;;5002489;28;20133;-70
2022/03/01 04:28:11;;;;;;;15.48;9.73;;;5.20;99.90;;;;;;5019480;28;20314;-70
2022/03/01 04:30:37;;;;;;;15.65;10.38;;;5.30;99.90;;;;;;5019425;28;20287;-70
2022/03/01 04:33:03;;;;;;;14.48;9.73;;;5.30;99.90;;;;;;5019536;28;20057;-70
2022/03/01 04:35:29;;;;;;;15.77;10.18;;;5.30;99.90;;;;;;5019546;28;20402;-70
2022/03/01 04:37:55;;;;;;;17.70;10.30;;;5.20;99.90;;;;;;5019258;28;20343;-70
2022/03/01 04:40:21;;;;;;;13.85;9.60;;;5.20;99.90;;;;;;5019070;28;20322;-70
2022/03/01 04:42:47;;;;;;;15.65;10.10;;;5.20;99.90;;;;;;5018950;28;20045;-70
2022/03/01 04:45:13;;;;;;;16.52;9.98;;;5.30;99.90;;;;;;5018364;28;20294;-70
2022/03/01 04:47:39;;;;;;;14.50;9.93;;;5.20;99.90;;;;;;5019003;28;20034;-70
2022/03/01 04:50:07;;;;;;;17.10;10.52;;;5.20;99.90;;;;;;5018778;28;20037;-70
2022/03/01 04:52:33;;;;;;;17.48;10.18;;;5.20;99.90;;;;;;5018341;28;20104;-70
2022/03/01 04:54:58;;;;;;;20.98;10.35;;;5.20;99.90;;;;;;5019166;28;20026;-70
2022/03/01 04:57:24;;;;;;;17.30;10.13;;;5.20;99.90;;;;;;5018090;28;20113;-70
2022/03/01 04:59:50;;;;;;;14.95;9.75;;;5.30;99.90;;;;;;5018605;28;20036;-70
2022/03/01 05:02:16;;;;;;;14.27;10.00;;;5.30;99.90;;;;;;5018328;28;20038;-69
2022/03/01 05:04:42;;;;;;;15.23;10.45;;;5.20;99.90;;;;;;5019512;28;20437;-71
2022/03/01 05:07:08;;;;;;;16.02;9.85;;;5.20;99.90;;;;;;5017900;28;20030;-71
2022/03/01 05:09:34;;;;;;;14.52;9.45;;;5.10;99.90;;;;;;5019305;28;20029;-71
2022/03/01 05:12:00;;;;;;;17.02;10.35;;;5.20;99.90;;;;;;5019186;28;20341;-72
2022/03/01 05:14:26;;;;;;;15.18;9.75;;;5.20;99.90;;;;;;5019156;28;20045;-71
2022/03/01 05:16:51;;;;;;;14.73;10.27;;;5.30;99.90;;;;;;5019848;28;20037;-71
2022/03/01 05:19:17;;;;;;;15.90;10.63;;;5.40;99.90;;;;;;5018126;28;20095;-71
2022/03/01 05:21:43;;;;;;;18.65;11.07;;;5.30;99.90;;;;;;5018850;28;20041;-71
2022/03/01 05:24:09;;;;;;;18.17;10.57;;;5.30;99.90;;;;;;5017887;28;20095;-71
2022/03/01 05:26:35;;;;;;;18.13;10.40;;;5.40;99.90;;;;;;5017874;28;20426;-71
2022/03/01 05:29:01;;;;;;;15.90;10.13;;;5.30;99.90;;;;;;5018216;28;20113;-70
2022/03/01 05:31:27;;;;;;;14.80;10.70;;;5.40;99.90;;;;;;5018260;28;20033;-71
2022/03/01 05:33:53;;;;;;;17.52;10.30;;;5.40;99.90;;;;;;5018339;28;20030;-71
2022/03/01 05:36:20;;;;;;;14.27;9.73;;;5.40;99.90;;;;;;5017929;28;20040;-71
2022/03/01 05:38:46;;;;;;;15.65;9.75;;;5.40;99.90;;;;;;5000735;28;20119;-71
2022/03/01 05:41:11;;;;;;;16.08;9.85;;;5.30;99.90;;;;;;5017718;28;20049;-71
2022/03/01 05:43:38;;;;;;;19.67;10.40;;;5.30;99.90;;;;;;5017931;28;20029;-70
2022/03/01 05:46:05;;;;;;;16.95;10.25;;;5.30;99.90;;;;;;5017343;28;20033;-71
2022/03/01 05:48:31;;;;;;;16.13;10.13;;;5.20;99.90;;;;;;5017815;28;20428;-70
2022/03/01 05:50:57;;;;;;;15.88;9.68;;;5.20;99.90;;;;;;5017111;28;20099;-70
2022/03/01 05:53:24;;;;;;;15.35;9.80;;;5.30;99.90;;;;;;5033896;28;20061;-71
2022/03/01 05:55:50;;;;;;;16.40;10.15;;;5.30;99.90;;;;;;5017138;28;20117;-71
2022/03/01 05:58:16;;;;;;;16.02;9.70;;;5.30;99.90;;;;;;5016976;28;20129;-71
2022/03/01 06:00:42;;;;;;;14.30;9.85;;;5.20;99.90;;;;;;5017819;28;20034;-70
2022/03/01 06:03:08;;;;;;;15.57;9.65;;;5.20;99.90;;;;;;5000954;28;20044;-70
2022/03/01 06:05:35;;;;;;;16.88;10.00;;;5.20;99.90;;;;;;5018327;28;20113;-71
2022/03/01 06:08:01;;;;;;;16.33;9.35;;;5.20;99.90;;;;;;5017845;28;20030;-71
2022/03/01 06:10:27;;;;;;;14.95;9.63;;;5.20;99.90;;;;;;5018132;28;20041;-70
2022/03/01 06:12:53;;;;;;;14.15;9.60;;;5.30;99.90;;;;;;5001189;28;20111;-70
2022/03/01 06:15:20;;;;;;;13.52;9.20;;;5.20;99.90;;;;;;5017622;28;20445;-71
2022/03/01 06:17:46;;;;;;;13.43;9.05;;;5.20;99.90;;;;;;5017509;28;20049;-71
2022/03/01 06:20:12;;;;;;;15.10;8.98;;;5.20;99.90;;;;;;5018158;28;20040;-72
2022/03/01 06:22:40;;;;;;;14.35;9.05;;;5.20;99.90;;;;;;5017255;28;20038;-71
2022/03/01 06:25:07;;;;;;;16.90;9.95;;;5.30;99.90;;;;;;5018277;28;20085;-71
2022/03/01 06:27:37;;;;;;;15.45;9.90;;;5.20;99.90;;;;;;5017897;28;20040;-71
2022/03/01 06:30:05;;;;;;;17.27;10.20;;;5.20;99.90;;;;;;5017280;28;20045;-71
2022/03/01 06:32:31;;;;;;;14.20;10.20;;;5.30;99.90;;;;;;5017017;28;20049;-71
2022/03/01 06:34:57;;;;;;;14.60;9.35;;;5.20;99.90;;;;;;5016845;28;20412;-69
2022/03/01 06:37:23;;;;;;;16.48;9.80;;;5.10;99.90;;;;;;5017474;28;20390;-70
2022/03/01 06:39:50;;;;;;;13.23;9.27;;;5.20;99.90;;;;;;5017656;28;20080;-71
2022/03/01 06:42:17;;;;;;;19.20;10.35;;;5.20;99.90;;;;;;5018451;28;20030;-71
2022/03/01 06:44:43;;;;;;;15.98;10.15;;;5.30;99.90;;;;;;5018919;28;20030;-70
2022/03/01 06:47:09;;;;;;;18.58;10.32;;;5.30;99.90;;;;;;5018212;28;20279;-70
2022/03/01 06:49:36;;;;;;;16.42;9.18;;;5.30;99.90;;;;;;5017639;28;20112;-70
2022/03/01 06:52:02;;;;;;;14.43;8.95;;;5.40;99.90;;;;;;5017312;28;20382;-70
2022/03/01 06:54:29;;;;;;;13.68;9.30;;;5.40;99.90;;;;;;5000429;28;20038;-71
2022/03/01 06:56:54;;;;;;;14.00;9.15;;;5.50;99.90;;;;;;5000760;28;20030;-70
2022/03/01 06:59:20;;;;;;;16.15;10.18;;;5.50;99.90;;;;;;5016543;28;20038;-70
2022/03/01 07:01:46;;;;;;;13.32;9.00;;;5.50;99.90;;;;;;5016745;28;20059;-70
2022/03/01 07:04:12;;;;;;;14.82;9.32;;;5.60;99.90;;;;;;5001150;28;20045;-70
2022/03/01 07:06:38;;;;;;;18.02;10.25;;;5.60;99.90;;;;;;5017318;28;20117;-71
2022/03/01 07:09:04;;;;;;;14.88;9.95;;;5.70;99.90;;;;;;5017035;28;20022;-70
2022/03/01 07:11:29;;;;;;;14.82;9.52;;;5.70;99.90;;;;;;5017445;28;20033;-70
2022/03/01 07:13:55;;;;;;;16.67;10.10;;;5.70;99.90;;;;;;5016655;28;20048;-71
2022/03/01 07:16:21;;;;;;;15.50;10.13;;;5.70;99.90;;;;;;5017194;28;20066;-70
2022/03/01 07:18:47;;;;;;;17.02;10.05;;;5.70;99.90;;;;;;5016957;28;20053;-69
2022/03/01 07:21:13;;;;;;;14.90;9.75;;;5.90;99.90;;;;;;5016789;28;20030;-70
2022/03/01 07:23:40;;;;;;;14.93;9.98;;;5.90;99.90;;;;;;4999545;28;20350;-71
2022/03/01 07:26:07;;;;;;;17.08;9.77;;;6.00;99.90;;;;;;5016010;28;20030;-71
2022/03/01 07:28:34;;;;;;;16.58;10.30;;;6.00;99.90;;;;;;5017206;28;20412;-68
2022/03/01 07:31:00;;;;;;;15.13;9.70;;;6.00;99.90;;;;;;5020081;28;20029;-70
2022/03/01 07:33:26;;;;;;;16.58;10.27;;;6.00;99.90;;;;;;5020601;28;20045;-71
2022/03/01 07:35:52;;;;;;;15.75;9.70;;;6.10;99.90;;;;;;5021112;28;20038;-70
2022/03/01 07:38:18;;;;;;;19.33;10.45;;;6.10;99.90;;;;;;5019603;28;20046;-66
2022/03/01 07:40:44;;;;;;;19.63;10.35;;;7.50;99.90;;;;;;5019770;28;20153;-71
2022/03/01 07:43:10;;;;;;;17.02;9.95;;;7.20;99.90;;;;;;5019468;28;20245;-72
2022/03/01 07:45:36;;;;;;;18.77;10.55;;;6.90;99.90;;;;;;5020572;28;20108;-71
2022/03/01 07:48:03;;;;;;;16.55;10.35;;;6.80;99.90;;;;;;5019639;28;20036;-71
2022/03/01 07:50:30;;;;;;;18.67;10.27;;;6.70;99.90;;;;;;5020247;28;20026;-70
2022/03/01 07:52:56;;;;;;;15.85;9.45;;;6.60;99.90;;;;;;5020056;28;20060;-71
2022/03/01 07:55:22;;;;;;;13.70;9.80;;;6.70;99.90;;;;;;5003810;28;20297;-71
2022/03/01 07:57:49;;;;;;;14.23;9.27;;;6.60;99.90;;;;;;5003151;28;20030;-70
2022/03/01 08:00:15;;;;;;;15.20;9.70;;;6.70;99.90;;;;;;5020072;28;20123;-70
2022/03/01 08:02:42;;;;;;;17.30;9.82;;;6.70;99.90;;;;;;5019643;28;20026;-70
2022/03/01 08:05:10;;;;;;;16.42;10.13;;;6.90;99.90;;;;;;5018952;28;20289;-70
2022/03/01 08:07:36;;;;;;;16.50;10.48;;;6.90;99.90;;;;;;5019699;28;20061;-69
2022/03/01 08:10:03;;;;;;;15.63;10.20;;;7.10;99.90;;;;;;5018857;28;20306;-71
2022/03/01 08:12:29;;;;;;;15.13;10.32;;;7.30;99.90;;;;;;5019182;28;20030;-70
2022/03/01 08:14:55;;;;;;;16.08;10.32;;;7.40;99.90;;;;;;5019901;28;20035;-69
2022/03/01 08:17:21;;;;;;;17.73;10.50;;;7.60;99.90;;;;;;5002426;28;20117;-70
2022/03/01 08:19:47;;;;;;;16.02;10.30;;;7.70;99.90;;;;;;5018593;28;20044;-70
2022/03/01 08:22:13;;;;;;;15.85;10.20;;;7.90;99.90;;;;;;5002477;28;20452;-70
2022/03/01 08:24:39;;;;;;;17.15;10.27;;;8.10;99.90;;;;;;5018619;28;20030;-71
2022/03/01 08:27:05;;;;;;;18.30;10.63;;;7.90;99.90;;;;;;5002232;28;20045;-71
2022/03/01 08:29:31;;;;;;;16.80;10.65;;;8.00;99.90;;;;;;5019385;28;20341;-71
2022/03/01 08:31:57;;;;;;;19.77;10.57;;;8.00;99.90;;;;;;5018643;28;20271;-70
2022/03/01 08:34:23;;;;;;;17.75;10.63;;;8.10;99.90;;;;;;5019926;28;20026;-72
2022/03/01 08:36:49;;;;;;;14.88;10.60;;;8.20;99.90;;;;;;5019358;28;20121;-71
2022/03/01 08:39:15;;;;;;;17.38;10.88;;;8.40;99.90;;;;;;5019083;28;20068;-71
2022/03/01 08:41:41;;;;;;;19.25;11.00;;;8.40;99.90;;;;;;5018258;28;20022;-71
2022/03/01 08:44:07;;;;;;;15.60;10.57;;;8.40;99.90;;;;;;5018262;28;20030;-71
2022/03/01 08:46:33;;;;;;;18.65;10.57;;;8.40;99.90;;;;;;5019051;28;20090;-71
2022/03/01 08:48:59;;;;;;;15.85;11.10;;;8.50;99.90;;;;;;5019086;28;20309;-71
2022/03/01 08:51:28;;;;;;;19.15;11.07;;;8.40;99.90;;;;;;5018164;28;20034;-70
2022/03/01 08:53:54;;;;;;;17.23;10.65;;;8.40;99.90;;;;;;5018253;28;20058;-71
2022/03/01 08:56:21;;;;;;;16.98;11.10;;;8.40;99.90;;;;;;5018348;28;20029;-71
2022/03/01 08:58:47;;;;;;;14.98;10.25;;;8.50;99.90;;;;;;5018783;28;20058;-71
2022/03/01 09:01:14;;;;;;;19.55;10.98;;;8.60;99.90;;;;;;5018721;28;20121;-72
2022/03/01 09:03:41;;;;;;;16.65;10.82;;;8.70;99.90;;;;;;5018553;28;20042;-71
2022/03/01 09:06:07;;;;;;;15.88;10.60;;;8.60;99.90;;;;;;5018589;28;20030;-71
2022/03/01 09:08:37;;;;;;;17.65;10.90;;;8.60;99.90;;;;;;5018656;28;20074;-71
2022/03/01 09:11:03;;;;;;;18.00;9.82;;;8.70;99.90;;;;;;5017705;28;20048;-71
2022/03/01 09:13:29;;;;;;;20.10;10.38;;;8.80;99.90;;;;;;5017712;28;20033;-71
2022/03/01 09:15:55;;;;;;;15.88;10.43;;;8.80;99.90;;;;;;5017739;28;20410;-71
2022/03/01 09:18:21;;;;;;;19.33;11.00;;;8.90;99.90;;;;;;5018702;28;20041;-72
2022/03/01 09:20:48;;;;;;;17.02;10.63;;;8.70;99.90;;;;;;5017699;28;20042;-71
2022/03/01 09:23:13;;;;;;;18.77;10.40;;;8.70;99.90;;;;;;5017528;28;20365;-72
2022/03/01 09:25:40;;;;;;;18.98;11.15;;;8.20;99.90;;;;;;5017997;28;20034;-70
2022/03/01 09:28:06;;;;;;;18.05;10.85;;;7.90;99.90;;;;;;5017762;28;20033;-69
2022/03/01 09:30:32;;;;;;;33.17;18.88;;;8.00;99.90;;;;;;5017916;28;20034;-70
2022/03/01 09:32:58;;;;;;;17.40;11.60;;;8.40;99.90;;;;;;5017500;28;20033;-69
2022/03/01 09:35:24;;;;;;;17.60;10.88;;;8.60;99.90;;;;;;5017556;28;20343;-70
2022/03/01 09:37:50;;;;;;;16.23;10.40;;;8.90;99.90;;;;;;5018387;28;20026;-70
2022/03/01 09:40:17;;;;;;;14.98;10.60;;;9.00;99.90;;;;;;5018031;28;20080;-70
2022/03/01 09:42:43;;;;;;;19.55;11.52;;;9.20;99.90;;;;;;5017969;28;20057;-71
2022/03/01 09:45:12;;;;;;;17.25;11.57;;;9.10;99.90;;;;;;5018082;28;20112;-72
2022/03/01 09:47:38;;;;;;;17.52;10.70;;;9.30;99.90;;;;;;5017255;28;20037;-69
2022/03/01 09:50:06;;;;;;;17.60;11.07;;;9.40;99.90;;;;;;5017754;28;20094;-69
2022/03/01 09:52:33;;;;;;;18.13;10.57;;;9.60;99.90;;;;;;5016402;28;20298;-70
2022/03/01 09:54:59;;;;;;;15.68;10.82;;;9.60;99.90;;;;;;5018212;28;20072;-69
2022/03/01 09:57:25;;;;;;;17.70;10.90;;;9.60;99.90;;;;;;5017071;28;20029;-71
2022/03/01 09:59:53;;;;;;;18.23;11.05;;;9.40;99.90;;;;;;5000631;28;20113;-72
2022/03/01 10:02:19;;;;;;;17.35;10.90;;;9.50;99.90;;;;;;5001330;28;20088;-71
2022/03/01 10:04:51;;;;;;;18.00;11.00;;;9.50;99.90;;;;;;5016871;28;20045;-70
2022/03/01 10:07:28;;;;;;;15.23;10.95;;;9.60;99.90;;;;;;5017541;28;20045;-69
2022/03/01 10:10:02;;;;;;;17.52;11.23;;;9.70;99.90;;;;;;5016557;28;20355;-69
2022/03/01 10:12:29;;;;;;;18.38;11.00;;;9.60;99.90;;;;;;5017465;28;20061;-69
2022/03/01 10:15:03;;;;;;;15.10;11.00;;;9.70;99.90;;;;;;5000498;28;20409;-70
2022/03/01 10:17:42;;;;;;;17.00;10.68;;;9.90;99.90;;;;;;5017627;28;20038;-70
2022/03/01 10:20:18;;;;;;;16.48;11.15;;;10.00;99.90;;;;;;4984134;28;20301;-70
2022/03/01 10:22:49;;;;;;;17.88;11.45;;;10.20;99.90;;;;;;5017151;28;20278;-71
2022/03/01 10:25:18;;;;;;;15.88;11.18;;;10.20;99.90;;;;;;5016673;28;20297;-70
2022/03/01 10:27:45;;;;;;;15.35;10.73;;;10.30;99.90;;;;;;5017472;28;20457;-71
2022/03/01 10:30:12;;;;;;;15.65;10.52;;;10.50;99.90;;;;;;5016508;28;20132;-70
2022/03/01 10:32:38;;;;;;;18.63;11.52;;;10.70;99.90;;;;;;5017152;28;20080;-68
2022/03/01 10:35:07;;;;;;;19.17;11.45;;;10.70;99.90;;;;;;5000074;28;20342;-70
2022/03/01 10:37:35;;;;;;;16.48;11.18;;;10.80;99.90;;;;;;5017196;28;20080;-71
2022/03/01 10:40:21;;;;;;;16.80;10.75;;;10.90;99.90;;;;;;5016192;28;20398;-69
2022/03/01 10:43:09;;;;;;;18.95;12.00;;;11.10;99.90;;;;;;5016275;28;20037;-70
2022/03/01 10:45:44;;;;;;;22.27;11.88;;;10.90;99.90;;;;;;5016407;28;20364;-69
2022/03/01 10:48:21;;;;;;;22.40;12.00;;;11.00;99.90;;;;;;5000227;28;20026;-70
2022/03/01 10:51:03;;;;;;;20.65;11.93;;;11.10;99.90;;;;;;5017022;28;20405;-69
2022/03/01 10:53:45;;;;;;;18.57;11.80;;;10.50;99.90;;;;;;5016375;28;20433;-70
2022/03/01 10:56:14;;;;;;;19.45;12.18;;;10.00;99.90;;;;;;5017137;28;20398;-70
2022/03/01 10:58:42;;;;;;;18.70;11.65;;;9.90;99.90;;;;;;5016277;28;20049;-70
2022/03/01 11:01:09;;;;;;;18.58;12.23;;;10.10;99.90;;;;;;5016010;28;20057;-69
2022/03/01 11:03:36;;;;;;;19.73;11.38;;;9.80;99.90;;;;;;5016051;28;20313;-70
2022/03/01 11:06:03;;;;;;;18.48;11.82;;;9.60;99.90;;;;;;5020180;28;20090;-69
2022/03/01 11:08:38;;;;;;;18.88;11.63;;;9.20;99.90;;;;;;5020107;28;20033;-70
2022/03/01 11:11:07;;;;;;;21.67;12.32;;;9.00;99.90;;;;;;5020208;28;20318;-71
2022/03/01 11:13:37;;;;;;;18.48;11.48;;;9.00;99.90;;;;;;5020999;28;20087;-68
2022/03/01 11:16:21;;;;;;;22.20;12.43;;;8.70;99.90;;;;;;5020887;28;20113;-71
2022/03/01 11:19:03;;;;;;;22.60;12.00;;;8.70;99.90;;;;;;5020774;28;20301;-71
2022/03/01 11:21:31;;;;;;;18.42;11.13;;;8.80;99.90;;;;;;5020690;28;20026;-70
2022/03/01 11:23:57;;;;;;;23.95;12.52;;;9.20;99.90;;;;;;5020525;28;20029;-71
2022/03/01 11:26:23;;;;;;;20.52;12.60;;;9.80;99.90;;;;;;5020555;28;20026;-69
2022/03/01 11:28:57;;;;;;;20.73;11.95;;;10.20;99.90;;;;;;5020582;28;20378;-69
2022/03/01 11:31:30;;;;;;;18.60;11.85;;;10.40;99.90;;;;;;5020192;28;20033;-69
2022/03/01 11:34:02;;;;;;;19.45;11.80;;;10.60;99.90;;;;;;5003731;28;20327;-70
2022/03/01 11:36:30;;;;;;;20.00;12.75;;;10.70;99.90;;;;;;5019702;28;20091;-70
2022/03/01 11:39:09;;;;;;;19.67;13.52;;;11.00;99.90;;;;;;5020501;28;20431;-71
2022/03/01 11:41:47;;;;;;;19.88;12.65;;;11.20;99.90;;;;;;5020506;28;20424;-69
2022/03/01 11:44:22;;;;;;;20.65;12.50;;;11.10;99.90;;;;;;5019451;28;20125;-69
2022/03/01 11:46:50;;;;;;;20.52;12.90;;;10.90;99.90;;;;;;5019699;28;20045;-70
2022/03/01 11:49:18;;;;;;;21.27;13.05;;;11.20;99.90;;;;;;5003203;28;20088;-70
2022/03/01 11:52:16;;;;;;;30.38;12.80;;;11.70;99.90;;;;;;5020106;28;20111;-69
2022/03/01 11:54:43;;;;;;;20.70;12.65;;;12.30;99.90;;;;;;5019542;28;20382;-69
2022/03/01 11:57:10;;;;;;;20.63;12.55;;;12.70;99.90;;;;;;5019241;28;20026;-69
2022/03/01 11:59:39;;;;;;;18.83;12.60;;;13.10;99.90;;;;;;4986777;28;20406;-69
2022/03/01 12:02:10;;;;;;;17.98;12.25;;;12.80;99.90;;;;;;5002814;28;20077;-69
2022/03/01 12:04:50;;;;;;;18.23;12.15;;;13.00;99.90;;;;;;5002780;28;20048;-69
2022/03/01 12:07:30;;;;;;;19.60;11.85;;;13.40;99.90;;;;;;5019840;28;20052;-69
2022/03/01 12:10:09;;;;;;;22.73;13.13;;;13.60;99.90;;;;;;5020096;28;20029;-69
2022/03/01 12:12:45;;;;;;;18.52;11.65;;;13.70;99.90;;;;;;5002709;28;20294;-68
2022/03/01 12:15:12;;;;;;;22.80;12.82;;;13.90;99.90;;;;;;5018610;28;20038;-69
2022/03/01 12:17:49;;;;;;;21.65;12.80;;;13.80;99.90;;;;;;5018464;28;20030;-68
2022/03/01 12:20:21;;;;;;;19.40;12.52;;;13.20;99.90;;;;;;5018913;28;20041;-68
2022/03/01 12:23:03;;;;;;;22.35;13.23;;;13.10;99.90;;;;;;5019487;28;20034;-68
2022/03/01 12:25:33;;;;;;;19.25;12.93;;;12.50;99.90;;;;;;5003077;28;20030;-68
2022/03/01 12:28:01;;;;;;;18.90;12.18;;;12.10;99.90;;;;;;5002450;28;20274;-68
2022/03/01 12:30:27;;;;;;;20.77;13.00;;;12.30;99.90;;;;;;5018737;28;20108;-69
2022/03/01 12:32:58;;;;;;;19.83;13.18;;;12.50;99.90;;;;;;5018944;28;20100;-69
2022/03/01 12:35:27;;;;;;;18.17;12.68;;;12.60;99.90;;;;;;5019421;28;20026;-69
2022/03/01 12:38:03;;;;;;;23.25;13.38;;;12.80;99.90;;;;;;5018561;28;20477;-69
2022/03/01 12:40:31;;;;;;;22.60;12.93;;;12.60;99.90;;;;;;5002061;28;20045;-68